Time;durP1;ratioP1;P1;durP2;ratioP2;P2;SDS_P1;SDS_P2;PMS_P1;PMS_P2;Temp;Humidity;BMP_temperature;BMP_pressure;BME280_temperature;BME280_humidity;BME280_pressure;Samples;Min_cycle;Max_cycle;Signal;HPM_P1;HPM_P2
2021/08/26 00:00:14;;;;;;;24.90;9.52;;;7.80;99.90;;;;;;4431420;28;656531;-66
2021/08/26 00:06:08;;;;;;;21.07;9.00;;;7.70;99.90;;;;;;4385967;28;656593;-67
2021/08/26 00:08:56;;;;;;;19.43;9.53;;;7.70;99.90;;;;;;4430823;28;656961;-67
2021/08/26 00:11:44;;;;;;;19.33;9.00;;;7.80;99.90;;;;;;4412154;28;657440;-66
2021/08/26 00:14:32;;;;;;;22.07;9.23;;;7.80;99.90;;;;;;4425167;28;656675;-67
2021/08/26 00:17:21;;;;;;;17.53;8.77;;;7.80;99.90;;;;;;4431133;28;657568;-67
2021/08/26 00:20:10;;;;;;;22.37;8.70;;;7.70;99.90;;;;;;4411953;28;658002;-66
2021/08/26 00:22:57;;;;;;;18.77;9.50;;;7.80;99.90;;;;;;4397657;28;656272;-67
2021/08/26 00:25:45;;;;;;;17.87;9.23;;;7.80;99.90;;;;;;4435156;28;656559;-67
2021/08/26 00:28:32;;;;;;;18.55;9.00;;;7.80;99.90;;;;;;4405618;28;656503;-67
2021/08/26 00:31:20;;;;;;;22.63;9.47;;;7.80;99.90;;;;;;4434693;28;657119;-66
2021/08/26 00:34:09;;;;;;;16.30;8.57;;;7.80;99.90;;;;;;4406067;28;656326;-67
2021/08/26 00:36:56;;;;;;;17.90;8.37;;;7.90;99.90;;;;;;4434592;28;657143;-67
2021/08/26 00:39:44;;;;;;;19.03;8.87;;;7.90;99.90;;;;;;4400096;28;657431;-67
2021/08/26 00:42:32;;;;;;;17.30;8.77;;;7.90;99.90;;;;;;4428134;28;656714;-67
2021/08/26 00:45:20;;;;;;;18.87;8.97;;;7.90;99.90;;;;;;4430391;28;657235;-67
2021/08/26 00:48:08;;;;;;;18.47;8.93;;;7.90;99.90;;;;;;4405715;28;656560;-67
2021/08/26 00:50:58;;;;;;;18.50;8.63;;;7.90;99.90;;;;;;4428311;28;656442;-66
2021/08/26 00:53:45;;;;;;;23.00;9.43;;;7.90;99.90;;;;;;4402627;28;657003;-66
2021/08/26 00:56:33;;;;;;;19.43;8.23;;;7.90;99.90;;;;;;4411111;28;656975;-67
2021/08/26 00:59:20;;;;;;;16.23;8.97;;;7.90;99.90;;;;;;4427295;28;657037;-66
2021/08/26 01:02:10;;;;;;;15.70;7.77;;;7.90;99.90;;;;;;4412092;28;656722;-67
2021/08/26 01:05:03;;;;;;;18.10;8.00;;;8.00;99.90;;;;;;4411959;28;656499;-66
2021/08/26 01:07:54;;;;;;;16.20;8.20;;;8.00;99.90;;;;;;4404479;28;656603;-67
2021/08/26 01:10:43;;;;;;;16.67;7.80;;;8.00;99.90;;;;;;4432188;28;656328;-67
2021/08/26 01:13:32;;;;;;;14.53;7.97;;;8.00;99.90;;;;;;4428942;28;656076;-67
2021/08/26 01:16:21;;;;;;;18.73;8.77;;;8.10;99.90;;;;;;4409984;28;657272;-66
2021/08/26 01:19:08;;;;;;;19.57;8.53;;;8.10;99.90;;;;;;4414374;28;656849;-67
2021/08/26 01:21:56;;;;;;;16.90;8.20;;;8.20;99.90;;;;;;4430992;28;656759;-67
2021/08/26 01:24:45;;;;;;;17.48;9.05;;;8.30;99.90;;;;;;4411634;28;657070;-66
2021/08/26 01:27:35;;;;;;;24.77;9.20;;;8.40;99.90;;;;;;4407719;28;656429;-67
2021/08/26 01:30:24;;;;;;;16.87;8.90;;;8.40;99.90;;;;;;4414363;28;656478;-67
2021/08/26 01:33:11;;;;;;;16.93;9.10;;;8.50;99.90;;;;;;4433193;28;657277;-67
2021/08/26 01:35:59;;;;;;;20.60;9.07;;;8.60;99.90;;;;;;4413293;28;656446;-67
2021/08/26 01:38:50;;;;;;;17.47;8.97;;;8.70;99.90;;;;;;4427968;28;657374;-67
2021/08/26 01:41:39;;;;;;;19.17;8.97;;;8.70;99.90;;;;;;4410834;28;656809;-67
2021/08/26 01:44:29;;;;;;;16.83;8.47;;;8.80;99.90;;;;;;4428273;28;656912;-67
2021/08/26 01:47:18;;;;;;;17.63;9.03;;;8.80;99.90;;;;;;4414287;28;656999;-67
2021/08/26 01:50:07;;;;;;;17.67;8.50;;;8.90;99.90;;;;;;4431562;28;656517;-66
2021/08/26 01:52:54;;;;;;;16.70;8.63;;;9.00;99.90;;;;;;4400561;28;656669;-66
2021/08/26 01:55:42;;;;;;;22.27;9.93;;;9.00;99.90;;;;;;4426946;28;655835;-67
2021/08/26 01:58:29;;;;;;;20.90;9.60;;;9.10;99.90;;;;;;4409403;28;657844;-67
2021/08/26 02:01:19;;;;;;;18.23;9.90;;;9.20;99.90;;;;;;4432055;28;657248;-67
2021/08/26 02:04:06;;;;;;;21.43;9.93;;;9.30;99.90;;;;;;4431299;28;656613;-67
2021/08/26 02:06:54;;;;;;;19.47;9.13;;;9.30;99.90;;;;;;4414213;28;656882;-67
2021/08/26 02:09:41;;;;;;;18.85;9.07;;;9.40;99.90;;;;;;4425730;28;656334;-67
2021/08/26 02:12:29;;;;;;;18.60;9.23;;;9.40;99.90;;;;;;4414457;28;656470;-67
2021/08/26 02:15:17;;;;;;;15.73;9.00;;;9.50;99.90;;;;;;4436830;28;655790;-67
2021/08/26 02:18:06;;;;;;;18.87;9.33;;;9.50;99.90;;;;;;4413104;28;657326;-67
2021/08/26 02:20:53;;;;;;;22.50;10.10;;;9.50;99.90;;;;;;4413997;28;656356;-67
2021/08/26 02:23:41;;;;;;;23.80;9.73;;;9.60;99.90;;;;;;4431305;28;659200;-66
2021/08/26 02:26:28;;;;;;;21.80;9.80;;;9.60;99.90;;;;;;4414070;28;656699;-67
2021/08/26 02:29:16;;;;;;;21.13;9.90;;;9.60;99.90;;;;;;4432589;28;657473;-67
2021/08/26 02:32:04;;;;;;;19.57;10.23;;;9.70;99.90;;;;;;4413428;28;656596;-67
2021/08/26 02:34:52;;;;;;;19.97;9.27;;;9.70;99.90;;;;;;4425889;28;657801;-66
2021/08/26 02:37:40;;;;;;;18.43;9.17;;;9.70;99.90;;;;;;4409680;28;657087;-67
2021/08/26 02:40:28;;;;;;;16.57;8.80;;;9.80;99.90;;;;;;4413745;28;656907;-67
2021/08/26 02:43:15;;;;;;;16.98;9.00;;;9.80;99.90;;;;;;4432688;28;657287;-67
2021/08/26 02:46:03;;;;;;;16.57;9.07;;;9.90;99.90;;;;;;4413673;28;656659;-66
2021/08/26 02:48:51;;;;;;;16.47;8.53;;;10.00;99.90;;;;;;4432578;28;656653;-67
2021/08/26 02:51:39;;;;;;;20.03;8.80;;;10.00;99.90;;;;;;4409607;28;657930;-67
2021/08/26 02:54:27;;;;;;;17.60;8.63;;;10.00;99.90;;;;;;4419522;28;657361;-66
2021/08/26 02:57:15;;;;;;;20.60;9.43;;;10.10;99.90;;;;;;4430420;28;658453;-67
2021/08/26 03:00:03;;;;;;;16.47;9.20;;;10.10;99.90;;;;;;4404102;28;657356;-67
2021/08/26 03:02:50;;;;;;;15.13;9.35;;;10.10;99.90;;;;;;4431651;28;658293;-67
2021/08/26 03:05:37;;;;;;;16.37;8.97;;;10.20;99.90;;;;;;4407538;28;657650;-67
2021/08/26 03:08:26;;;;;;;15.63;8.63;;;10.20;99.90;;;;;;4434561;28;658287;-66
2021/08/26 03:11:14;;;;;;;17.90;8.70;;;10.20;99.90;;;;;;4406497;28;658784;-67
2021/08/26 03:14:02;;;;;;;20.57;8.37;;;10.20;99.90;;;;;;4430167;28;658017;-67
2021/08/26 03:16:49;;;;;;;15.27;8.40;;;10.30;99.90;;;;;;4412127;28;658684;-67
2021/08/26 03:19:37;;;;;;;16.50;8.30;;;10.30;99.90;;;;;;4426969;28;657698;-67
2021/08/26 03:22:25;;;;;;;15.80;8.33;;;10.30;99.90;;;;;;4430159;28;658280;-67
2021/08/26 03:25:14;;;;;;;15.03;7.80;;;10.30;99.90;;;;;;4405948;28;657905;-68
2021/08/26 03:28:01;;;;;;;15.10;7.57;;;10.40;99.90;;;;;;4424908;28;657755;-67
2021/08/26 03:30:49;;;;;;;15.93;8.37;;;10.40;99.90;;;;;;4410040;28;658899;-67
2021/08/26 03:33:36;;;;;;;18.37;7.90;;;10.40;99.90;;;;;;4424894;28;657627;-67
2021/08/26 03:36:27;;;;;;;17.53;9.00;;;10.50;99.90;;;;;;4407098;28;658625;-67
2021/08/26 03:39:15;;;;;;;15.27;8.60;;;10.50;99.90;;;;;;4403864;28;658166;-66
2021/08/26 03:42:04;;;;;;;20.53;9.00;;;10.50;99.90;;;;;;4413006;28;657421;-67
2021/08/26 03:44:52;;;;;;;15.13;8.50;;;10.50;99.90;;;;;;4429847;28;657654;-67
2021/08/26 03:47:39;;;;;;;17.87;8.73;;;10.50;99.90;;;;;;4401226;28;658601;-66
2021/08/26 03:50:27;;;;;;;17.37;8.70;;;10.60;99.90;;;;;;4431063;28;657339;-67
2021/08/26 03:53:14;;;;;;;13.63;8.10;;;10.60;99.90;;;;;;4397289;28;657851;-66
2021/08/26 03:56:05;;;;;;;16.97;7.57;;;10.60;99.90;;;;;;4426722;28;657446;-66
2021/08/26 03:58:54;;;;;;;15.93;7.40;;;10.60;99.90;;;;;;4411332;28;657654;-67
2021/08/26 04:01:42;;;;;;;14.23;7.60;;;10.60;99.90;;;;;;4420091;28;657258;-66
2021/08/26 04:04:30;;;;;;;13.73;8.23;;;10.60;99.90;;;;;;4429942;28;658067;-67
2021/08/26 04:07:18;;;;;;;14.23;7.53;;;10.60;99.90;;;;;;4405095;28;657630;-67
2021/08/26 04:10:07;;;;;;;15.90;7.60;;;10.70;99.90;;;;;;4426308;28;657983;-66
2021/08/26 04:12:54;;;;;;;14.13;7.97;;;10.70;99.90;;;;;;4410881;28;658430;-67
2021/08/26 04:15:44;;;;;;;12.87;7.70;;;10.70;99.90;;;;;;4423281;28;657823;-67
2021/08/26 04:18:31;;;;;;;12.17;7.80;;;10.70;99.90;;;;;;4429055;28;657202;-66
2021/08/26 04:21:19;;;;;;;14.60;7.83;;;10.70;99.90;;;;;;4411148;28;659191;-67
2021/08/26 04:24:06;;;;;;;19.83;9.00;;;10.80;99.90;;;;;;4429289;28;657691;-67
2021/08/26 04:26:54;;;;;;;16.27;8.20;;;10.80;99.90;;;;;;4406771;28;659556;-68
2021/08/26 04:29:42;;;;;;;14.20;7.90;;;10.80;99.90;;;;;;4429232;28;657442;-67
2021/08/26 04:32:31;;;;;;;12.30;7.80;;;10.80;99.90;;;;;;4391272;28;658439;-66
2021/08/26 04:35:18;;;;;;;16.50;8.13;;;10.90;99.90;;;;;;4404031;28;657247;-67
2021/08/26 04:38:08;;;;;;;14.90;7.97;;;10.90;99.90;;;;;;4422738;28;657621;-67
2021/08/26 04:40:55;;;;;;;14.73;8.17;;;10.90;99.90;;;;;;4404580;28;657758;-67
2021/08/26 04:43:43;;;;;;;13.43;8.50;;;11.00;99.90;;;;;;4409950;28;657567;-67
2021/08/26 04:46:31;;;;;;;13.17;8.17;;;11.00;99.90;;;;;;4429127;28;658660;-66
2021/08/26 04:49:20;;;;;;;15.27;8.67;;;11.10;99.90;;;;;;4402673;28;657357;-66
2021/08/26 04:52:07;;;;;;;13.57;8.13;;;11.20;99.90;;;;;;4405214;28;657340;-67
2021/08/26 04:54:55;;;;;;;18.57;8.43;;;11.20;99.90;;;;;;4426208;28;657989;-66
2021/08/26 04:57:42;;;;;;;13.43;7.83;;;11.20;99.90;;;;;;4405280;28;657693;-67
2021/08/26 05:00:30;;;;;;;19.00;9.43;;;11.30;99.90;;;;;;4432893;28;658043;-66
2021/08/26 05:03:18;;;;;;;13.37;7.97;;;11.30;99.90;;;;;;4410380;28;658316;-67
2021/08/26 05:06:07;;;;;;;17.63;8.33;;;11.30;99.90;;;;;;4424924;28;658179;-67
2021/08/26 05:08:54;;;;;;;21.80;8.53;;;11.30;99.90;;;;;;4409696;28;658345;-67
2021/08/26 05:11:42;;;;;;;17.43;8.43;;;11.40;99.90;;;;;;4425728;28;658057;-67
2021/08/26 05:14:31;;;;;;;14.53;8.20;;;11.40;99.90;;;;;;4431781;28;657870;-67
2021/08/26 05:17:19;;;;;;;16.23;8.67;;;11.50;99.90;;;;;;4405917;28;658265;-67
2021/08/26 05:20:07;;;;;;;13.60;8.63;;;11.50;99.90;;;;;;4432790;28;657520;-67
2021/08/26 05:22:57;;;;;;;15.40;8.90;;;11.60;99.90;;;;;;4405058;28;658204;-68
2021/08/26 05:25:45;;;;;;;14.40;8.03;;;11.70;99.90;;;;;;4403512;28;658066;-67
2021/08/26 05:28:32;;;;;;;14.73;7.97;;;11.60;99.90;;;;;;4407918;28;658027;-67
2021/08/26 05:31:22;;;;;;;16.97;8.60;;;11.70;99.90;;;;;;4431677;28;658748;-67
2021/08/26 05:34:11;;;;;;;18.50;8.20;;;11.70;99.90;;;;;;4399696;28;658632;-67
2021/08/26 05:37:00;;;;;;;16.23;8.77;;;11.80;99.90;;;;;;4405721;28;658504;-68
2021/08/26 05:39:52;;;;;;;17.43;8.57;;;11.90;99.90;;;;;;4402036;28;657509;-67
2021/08/26 05:42:41;;;;;;;16.27;9.37;;;11.90;99.90;;;;;;4402508;28;657898;-67
2021/08/26 05:45:32;;;;;;;21.53;9.70;;;12.00;99.90;;;;;;4405075;28;658494;-67
2021/08/26 05:48:21;;;;;;;18.30;9.57;;;12.10;99.90;;;;;;4405789;28;659749;-67
2021/08/26 05:51:15;;;;;;;16.37;9.47;;;12.10;99.90;;;;;;4404633;28;657998;-67
2021/08/26 05:54:05;;;;;;;16.60;9.40;;;12.20;99.90;;;;;;4382884;28;657574;-68
2021/08/26 05:56:58;;;;;;;18.57;10.00;;;12.20;99.90;;;;;;4414043;28;657607;-67
2021/08/26 05:59:46;;;;;;;22.27;10.10;;;12.30;99.90;;;;;;4403553;28;659071;-67
2021/08/26 06:02:33;;;;;;;21.83;10.17;;;12.30;99.90;;;;;;4411174;28;658570;-67
2021/08/26 06:05:25;;;;;;;26.83;10.70;;;12.30;99.90;;;;;;4430743;28;659079;-66
2021/08/26 06:08:17;;;;;;;23.97;10.73;;;12.30;99.90;;;;;;4383101;28;658851;-67
2021/08/26 06:11:07;;;;;;;37.63;11.30;;;12.40;99.90;;;;;;4406881;28;659542;-67
2021/08/26 06:14:03;;;;;;;19.97;9.60;;;12.50;99.90;;;;;;4406114;28;659071;-67
2021/08/26 06:16:54;;;;;;;18.83;9.97;;;12.50;99.90;;;;;;4408482;28;658285;-66
2021/08/26 06:19:46;;;;;;;24.55;9.95;;;12.60;99.90;;;;;;4403724;28;658079;-67
2021/08/26 06:22:40;;;;;;;23.57;11.20;;;12.60;99.90;;;;;;4384809;28;658744;-67
2021/08/26 06:25:33;;;;;;;22.33;9.43;;;12.70;99.90;;;;;;4389656;28;658892;-67
2021/08/26 06:28:27;;;;;;;19.43;9.37;;;12.80;99.90;;;;;;4408618;28;658454;-66
2021/08/26 06:31:23;;;;;;;19.80;9.63;;;12.70;99.90;;;;;;4379924;28;657578;-67
2021/08/26 06:34:11;;;;;;;16.63;8.93;;;12.80;99.90;;;;;;4406944;28;657794;-67
2021/08/26 06:36:59;;;;;;;18.33;9.50;;;12.80;99.90;;;;;;4409659;28;657785;-67
2021/08/26 06:39:46;;;;;;;18.47;9.37;;;12.80;99.90;;;;;;4428578;28;657553;-67
2021/08/26 06:42:34;;;;;;;18.23;9.80;;;12.80;99.90;;;;;;4411234;28;657720;-67
2021/08/26 06:45:21;;;;;;;19.17;9.10;;;12.90;99.90;;;;;;4429575;28;658132;-67
2021/08/26 06:48:10;;;;;;;16.73;9.80;;;13.00;99.90;;;;;;4405616;28;658814;-67
2021/08/26 06:50:58;;;;;;;19.10;9.37;;;13.00;99.90;;;;;;4410734;28;657324;-67
2021/08/26 06:53:46;;;;;;;15.80;9.13;;;13.00;99.90;;;;;;4431259;28;657960;-67
2021/08/26 06:56:33;;;;;;;18.73;9.30;;;13.10;99.90;;;;;;4411365;28;657366;-67
2021/08/26 06:59:21;;;;;;;20.20;9.87;;;13.00;99.90;;;;;;4430309;28;657147;-67
2021/08/26 07:02:09;;;;;;;20.13;9.67;;;12.90;99.90;;;;;;4406881;28;658083;-67
2021/08/26 07:04:58;;;;;;;19.23;9.83;;;13.00;99.90;;;;;;4430406;28;657992;-67
2021/08/26 07:07:45;;;;;;;18.27;10.30;;;13.10;99.90;;;;;;4406266;28;658169;-67
2021/08/26 07:10:33;;;;;;;14.87;9.47;;;13.10;99.90;;;;;;4408834;28;659379;-67
2021/08/26 07:13:21;;;;;;;17.33;10.13;;;13.10;99.90;;;;;;4431839;28;657973;-67
2021/08/26 07:16:09;;;;;;;15.53;9.73;;;13.10;99.90;;;;;;4404851;28;658860;-67
2021/08/26 07:18:56;;;;;;;20.87;10.70;;;13.10;99.90;;;;;;4430355;28;657185;-67
2021/08/26 07:21:47;;;;;;;20.43;11.10;;;13.20;99.90;;;;;;4410733;28;660315;-67
2021/08/26 07:24:34;;;;;;;18.07;11.50;;;13.20;99.90;;;;;;4396419;28;660717;-67
2021/08/26 07:27:22;;;;;;;20.33;11.57;;;13.20;99.90;;;;;;4430144;28;658699;-67
2021/08/26 07:30:10;;;;;;;21.30;11.33;;;13.30;99.90;;;;;;4389917;28;660177;-67
2021/08/26 07:32:59;;;;;;;20.37;11.23;;;13.30;99.90;;;;;;4392963;28;659068;-67
2021/08/26 07:35:46;;;;;;;18.23;10.80;;;13.30;99.90;;;;;;4424852;28;658148;-67
2021/08/26 07:38:35;;;;;;;21.33;11.17;;;13.40;99.90;;;;;;4416481;28;658843;-67
2021/08/26 07:41:23;;;;;;;19.77;11.10;;;13.30;99.90;;;;;;4409199;28;658816;-67
2021/08/26 07:44:11;;;;;;;20.87;10.03;;;13.40;99.90;;;;;;4427980;28;658781;-67
2021/08/26 07:46:59;;;;;;;19.60;10.40;;;13.40;99.90;;;;;;4402601;28;659333;-66
2021/08/26 07:49:47;;;;;;;20.30;10.83;;;13.30;99.90;;;;;;4416446;28;658495;-67
2021/08/26 07:52:35;;;;;;;21.83;9.83;;;13.20;99.90;;;;;;4422870;28;659474;-67
2021/08/26 07:55:24;;;;;;;18.25;10.20;;;13.20;99.90;;;;;;4410505;28;657474;-67
2021/08/26 07:58:12;;;;;;;15.00;9.33;;;13.10;99.90;;;;;;4428272;28;658789;-67
2021/08/26 08:00:59;;;;;;;16.67;10.20;;;13.10;99.90;;;;;;4399254;28;658602;-67
2021/08/26 08:03:47;;;;;;;16.67;9.40;;;13.10;99.90;;;;;;4419552;28;658938;-67
2021/08/26 08:06:35;;;;;;;17.83;9.77;;;13.00;99.90;;;;;;4428524;28;658770;-67
2021/08/26 08:09:23;;;;;;;18.93;9.90;;;13.10;99.90;;;;;;4410343;28;657872;-67
2021/08/26 08:12:11;;;;;;;21.35;9.77;;;13.00;99.90;;;;;;4431018;28;658897;-67
2021/08/26 08:14:59;;;;;;;18.70;9.57;;;13.00;99.90;;;;;;4398592;28;658505;-67
2021/08/26 08:17:47;;;;;;;17.30;9.30;;;13.00;99.90;;;;;;4425478;28;657656;-66
2021/08/26 08:20:34;;;;;;;19.33;10.57;;;12.90;99.90;;;;;;4410689;28;657977;-67
2021/08/26 08:23:22;;;;;;;18.50;9.70;;;12.90;99.90;;;;;;4426430;28;658506;-67
2021/08/26 08:26:11;;;;;;;14.83;8.20;;;13.00;99.90;;;;;;4431126;28;658168;-67
2021/08/26 08:29:00;;;;;;;18.83;9.80;;;13.00;99.90;;;;;;4404344;28;657556;-67
2021/08/26 08:31:48;;;;;;;19.83;9.93;;;13.00;99.90;;;;;;4408445;28;658087;-67
2021/08/26 08:34:36;;;;;;;19.73;10.03;;;13.10;99.90;;;;;;4432064;28;658949;-67
2021/08/26 08:37:23;;;;;;;18.17;9.83;;;13.20;99.90;;;;;;4405650;28;658814;-67
2021/08/26 08:40:29;;;;;;;16.53;9.73;;;13.20;99.90;;;;;;4424632;28;658031;-67
2021/08/26 08:43:17;;;;;;;20.27;10.57;;;13.30;99.90;;;;;;4394669;28;657353;-67
2021/08/26 08:46:06;;;;;;;20.13;10.30;;;13.30;99.90;;;;;;4431927;28;658940;-67
2021/08/26 08:48:54;;;;;;;22.97;9.63;;;13.30;99.90;;;;;;4404505;28;660090;-67
2021/08/26 08:51:42;;;;;;;17.83;9.37;;;13.20;99.90;;;;;;4428396;28;657630;-67
2021/08/26 08:54:30;;;;;;;17.00;9.67;;;13.20;99.90;;;;;;4394323;28;659104;-67
2021/08/26 08:57:17;;;;;;;17.67;9.33;;;13.20;99.90;;;;;;4408643;28;657707;-67
2021/08/26 09:00:08;;;;;;;18.23;9.43;;;13.30;99.90;;;;;;4423902;28;658134;-66
2021/08/26 09:02:57;;;;;;;16.03;10.10;;;13.20;99.90;;;;;;4400382;28;658045;-67
2021/08/26 09:05:54;;;;;;;19.40;10.40;;;13.10;99.90;;;;;;4409063;28;659471;-67
2021/08/26 09:08:42;;;;;;;18.97;11.00;;;13.20;99.90;;;;;;4389273;28;658570;-67
2021/08/26 09:11:30;;;;;;;16.40;8.63;;;13.20;99.90;;;;;;4425493;28;659006;-67
2021/08/26 09:14:18;;;;;;;24.10;9.87;;;13.20;99.90;;;;;;4409275;28;657903;-67
2021/08/26 09:17:07;;;;;;;15.50;9.80;;;13.20;99.90;;;;;;4421123;28;658600;-67
2021/08/26 09:20:02;;;;;;;20.53;9.53;;;13.20;99.90;;;;;;4406598;28;658521;-67
2021/08/26 09:22:50;;;;;;;17.73;10.00;;;13.20;99.90;;;;;;4380790;28;657999;-67
2021/08/26 09:25:37;;;;;;;16.27;8.87;;;13.20;99.90;;;;;;4407301;28;658575;-68
2021/08/26 09:28:29;;;;;;;14.23;7.63;;;13.10;99.90;;;;;;4428686;28;658204;-67
2021/08/26 09:31:18;;;;;;;16.93;9.10;;;13.00;99.90;;;;;;4390606;28;657417;-68
2021/08/26 09:34:06;;;;;;;17.97;9.47;;;13.00;99.90;;;;;;4432278;28;657494;-68
2021/08/26 09:36:57;;;;;;;17.83;9.53;;;13.00;99.90;;;;;;4408510;28;659130;-68
2021/08/26 09:39:44;;;;;;;16.23;8.80;;;13.00;99.90;;;;;;4404694;28;657923;-68
2021/08/26 09:42:32;;;;;;;20.47;10.30;;;12.90;99.90;;;;;;4429689;28;657775;-68
2021/08/26 09:45:21;;;;;;;18.73;9.03;;;13.00;99.90;;;;;;4430698;28;660133;-67
2021/08/26 09:48:09;;;;;;;18.77;9.93;;;13.00;99.90;;;;;;4403901;28;658056;-68
2021/08/26 09:50:57;;;;;;;14.33;8.30;;;13.00;99.90;;;;;;4427132;28;658100;-67
2021/08/26 09:53:46;;;;;;;18.73;8.87;;;12.90;99.90;;;;;;4412717;28;658476;-67
2021/08/26 09:56:41;;;;;;;14.57;7.93;;;12.90;99.90;;;;;;4409610;28;657726;-67
2021/08/26 09:59:48;;;;;;;16.57;8.30;;;12.90;99.90;;;;;;4386247;28;658377;-68
2021/08/26 10:02:38;;;;;;;14.23;8.23;;;12.90;99.90;;;;;;4405851;28;657238;-67
2021/08/26 10:05:26;;;;;;;16.17;7.63;;;12.80;99.90;;;;;;4400103;28;657628;-67
2021/08/26 10:08:13;;;;;;;12.40;7.70;;;13.00;99.90;;;;;;4400494;28;657683;-67
2021/08/26 10:11:03;;;;;;;11.30;7.13;;;13.00;99.90;;;;;;4420631;28;657657;-67
2021/08/26 10:13:51;;;;;;;14.10;7.30;;;13.10;99.90;;;;;;4409038;28;658002;-68
2021/08/26 10:16:39;;;;;;;14.57;7.90;;;13.10;99.90;;;;;;4412030;28;657714;-67
2021/08/26 10:19:26;;;;;;;16.40;8.17;;;13.10;99.90;;;;;;4425237;28;658008;-68
2021/08/26 10:22:14;;;;;;;14.47;8.10;;;13.20;99.90;;;;;;4403962;28;659007;-68
2021/08/26 10:25:03;;;;;;;15.93;8.73;;;13.20;99.90;;;;;;4429795;28;657359;-68
2021/08/26 10:27:52;;;;;;;15.37;8.10;;;13.30;99.90;;;;;;4424504;28;658468;-68
2021/08/26 10:30:41;;;;;;;15.80;8.47;;;13.30;99.90;;;;;;4406031;28;658354;-67
2021/08/26 10:33:29;;;;;;;14.17;8.50;;;13.30;99.90;;;;;;4411285;28;657512;-68
2021/08/26 10:36:17;;;;;;;15.30;8.20;;;13.30;99.90;;;;;;4430554;28;657247;-68
2021/08/26 10:39:26;;;;;;;13.13;7.70;;;13.30;99.90;;;;;;4404116;28;658132;-68
2021/08/26 10:42:41;;;;;;;13.83;8.00;;;13.30;99.90;;;;;;4395355;28;657306;-68
2021/08/26 10:45:34;;;;;;;13.47;8.37;;;13.30;99.90;;;;;;4407986;28;657587;-68
2021/08/26 10:48:22;;;;;;;13.07;7.20;;;13.30;99.90;;;;;;4408146;28;657535;-68
2021/08/26 10:51:15;;;;;;;13.10;6.73;;;13.30;99.90;;;;;;4402044;28;657925;-67
2021/08/26 10:54:22;;;;;;;12.37;7.13;;;13.20;99.90;;;;;;4396176;28;657489;-68
2021/08/26 10:57:30;;;;;;;11.37;6.20;;;13.10;99.90;;;;;;4404758;28;658516;-68
2021/08/26 11:00:43;;;;;;;12.47;5.77;;;13.20;99.90;;;;;;4388459;28;657813;-68
2021/08/26 11:03:50;;;;;;;12.20;6.30;;;13.20;99.90;;;;;;4400774;28;657787;-67
2021/08/26 11:06:41;;;;;;;11.77;5.63;;;13.10;99.90;;;;;;4385947;28;658379;-67
2021/08/26 11:09:39;;;;;;;11.27;5.63;;;13.00;99.90;;;;;;4400855;28;658898;-68
2021/08/26 11:12:27;;;;;;;15.57;7.10;;;13.10;99.90;;;;;;4402184;28;658373;-67
2021/08/26 11:15:25;;;;;;;14.87;7.23;;;13.10;99.90;;;;;;4399750;28;658211;-67
2021/08/26 11:18:30;;;;;;;12.77;7.23;;;13.00;99.90;;;;;;4386106;28;658388;-68
2021/08/26 11:21:23;;;;;;;14.50;8.53;;;13.10;99.90;;;;;;4410504;28;657723;-67
2021/08/26 11:24:11;;;;;;;13.70;7.87;;;13.10;99.90;;;;;;4401628;28;657864;-68
2021/08/26 11:26:59;;;;;;;12.50;7.50;;;13.20;99.90;;;;;;4408356;28;657984;-68
2021/08/26 11:29:47;;;;;;;13.53;7.13;;;13.20;99.90;;;;;;4430174;28;658037;-67
2021/08/26 11:32:34;;;;;;;12.73;7.30;;;13.30;99.90;;;;;;4406988;28;658700;-68
2021/08/26 11:35:24;;;;;;;13.97;6.97;;;13.20;99.90;;;;;;4424140;28;657698;-67
2021/08/26 11:38:12;;;;;;;12.57;7.27;;;13.20;99.90;;;;;;4430458;28;658111;-68
2021/08/26 11:41:04;;;;;;;10.83;6.57;;;13.20;99.90;;;;;;4406757;28;658531;-68
2021/08/26 11:43:52;;;;;;;12.20;6.77;;;13.30;99.90;;;;;;4407136;28;657787;-68
2021/08/26 11:46:41;;;;;;;12.63;7.00;;;13.30;99.90;;;;;;4406744;28;658354;-68
2021/08/26 11:49:35;;;;;;;13.70;6.93;;;13.30;99.90;;;;;;4402140;28;659168;-68
2021/08/26 11:52:24;;;;;;;13.00;7.73;;;13.30;99.90;;;;;;4387153;28;658149;-67
2021/08/26 11:55:13;;;;;;;13.53;7.90;;;13.20;99.90;;;;;;4419552;28;657847;-68
2021/08/26 11:58:01;;;;;;;14.20;7.57;;;13.20;99.90;;;;;;4429734;28;657871;-68
2021/08/26 12:00:50;;;;;;;13.70;7.83;;;13.40;99.90;;;;;;4401535;28;657696;-69
2021/08/26 12:03:38;;;;;;;14.00;8.03;;;13.40;99.90;;;;;;4409668;28;657619;-68
2021/08/26 12:06:26;;;;;;;18.97;8.73;;;13.60;99.90;;;;;;4432879;28;658407;-68
2021/08/26 12:09:15;;;;;;;12.97;8.13;;;13.80;99.90;;;;;;4407186;28;657504;-68
2021/08/26 12:12:10;;;;;;;14.47;7.90;;;13.90;99.90;;;;;;4404468;28;657968;-68
2021/08/26 12:14:58;;;;;;;12.37;7.63;;;13.90;99.90;;;;;;4387960;28;658138;-68
2021/08/26 12:17:46;;;;;;;15.10;7.53;;;14.00;99.90;;;;;;4421118;28;658853;-68
2021/08/26 12:20:35;;;;;;;14.50;7.33;;;13.90;99.90;;;;;;4409379;28;657550;-68
2021/08/26 12:23:24;;;;;;;14.53;7.70;;;13.90;99.90;;;;;;4410619;28;657926;-68
2021/08/26 12:26:14;;;;;;;11.47;7.47;;;14.00;99.90;;;;;;4428553;28;657713;-68
2021/08/26 12:29:02;;;;;;;13.90;7.50;;;14.20;99.90;;;;;;4405224;28;657456;-68
2021/08/26 12:31:49;;;;;;;14.53;7.10;;;14.30;99.90;;;;;;4410964;28;658746;-68
2021/08/26 12:34:39;;;;;;;11.33;6.57;;;14.50;99.90;;;;;;4406009;28;658750;-68
2021/08/26 12:37:26;;;;;;;13.80;6.20;;;14.70;99.90;;;;;;4421776;28;657471;-68
2021/08/26 12:40:14;;;;;;;8.67;5.10;;;14.80;99.90;;;;;;4402345;28;658426;-68
2021/08/26 12:43:05;;;;;;;9.47;5.33;;;14.90;99.90;;;;;;4421324;28;656333;-68
2021/08/26 12:46:04;;;;;;;10.20;5.07;;;14.80;99.90;;;;;;4405928;28;656305;-68
2021/08/26 12:48:53;;;;;;;9.80;5.40;;;15.00;99.90;;;;;;4393184;28;658171;-68
2021/08/26 12:51:52;;;;;;;9.60;5.20;;;15.20;99.90;;;;;;4428410;28;657510;-68
2021/08/26 12:54:43;;;;;;;12.67;5.27;;;15.30;99.90;;;;;;4403668;28;657300;-68
2021/08/26 12:57:33;;;;;;;10.93;5.67;;;15.50;99.90;;;;;;4405600;28;658664;-68
2021/08/26 13:00:46;;;;;;;8.20;5.10;;;15.50;99.90;;;;;;4406941;28;658642;-68
2021/08/26 13:03:45;;;;;;;8.40;4.70;;;15.50;94.20;;;;;;4335670;28;657234;-68
2021/08/26 13:06:37;;;;;;;9.47;5.23;;;15.40;99.90;;;;;;4317560;28;656554;-67
2021/08/26 13:09:33;;;;;;;10.83;5.80;;;15.30;98.60;;;;;;4336522;28;657650;-67
2021/08/26 13:12:21;;;;;;;10.13;5.57;;;15.10;99.90;;;;;;4332013;28;658051;-67
2021/08/26 13:15:09;;;;;;;14.73;5.90;;;15.10;99.90;;;;;;4339787;28;657770;-68
2021/08/26 13:17:58;;;;;;;9.77;5.50;;;15.00;99.90;;;;;;4345063;28;657520;-69
2021/08/26 13:20:46;;;;;;;9.90;4.77;;;14.80;99.90;;;;;;4336701;28;656462;-69
2021/08/26 13:23:33;;;;;;;7.43;3.93;;;14.70;99.90;;;;;;4333683;28;656599;-69
2021/08/26 13:26:21;;;;;;;8.33;3.80;;;14.60;99.90;;;;;;4356306;28;657133;-68
2021/08/26 13:29:08;;;;;;;7.30;4.47;;;14.60;99.90;;;;;;4339462;28;656636;-68
2021/08/26 13:31:56;;;;;;;7.57;3.80;;;14.70;99.90;;;;;;4356531;28;656500;-68
2021/08/26 13:34:45;;;;;;;7.10;4.10;;;14.80;99.20;;;;;;4333636;28;657020;-68
2021/08/26 13:37:33;;;;;;;7.20;4.13;;;14.80;99.90;;;;;;4339914;28;656608;-68
2021/08/26 13:40:21;;;;;;;8.20;4.10;;;15.10;99.90;;;;;;4354388;28;658122;-69
2021/08/26 13:43:08;;;;;;;7.00;3.83;;;15.40;99.90;;;;;;4355039;28;656619;-68
2021/08/26 13:45:56;;;;;;;7.67;3.83;;;15.70;61.30;;;;;;4427153;28;656972;-68
2021/08/26 13:48:44;;;;;;;7.23;4.00;;;15.90;49.50;;;;;;4406617;28;657674;-68
2021/08/26 13:51:34;;;;;;;7.33;4.23;;;16.10;38.70;;;;;;4423733;28;656755;-68
2021/08/26 13:54:22;;;;;;;8.20;4.70;;;16.10;29.10;;;;;;4429584;28;656565;-67
2021/08/26 13:57:10;;;;;;;8.80;3.90;;;15.80;41.10;;;;;;4407154;28;657433;-67
2021/08/26 13:59:57;;;;;;;9.13;4.30;;;15.70;45.40;;;;;;4411291;28;656764;-68
2021/08/26 14:02:45;;;;;;;7.03;3.50;;;15.90;64.10;;;;;;4425581;28;657108;-67
2021/08/26 14:05:33;;;;;;;6.40;3.57;;;16.10;34.50;;;;;;4410609;28;656602;-68
2021/08/26 14:08:22;;;;;;;6.17;3.33;;;16.80;5.00;;;;;;4429542;28;656961;-68
2021/08/26 14:11:10;;;;;;;6.70;3.78;;;16.90;1.00;;;;;;4397775;28;656630;-68
2021/08/26 14:13:57;;;;;;;7.93;4.13;;;16.60;1.00;;;;;;4413191;28;655946;-68
2021/08/26 14:16:45;;;;;;;6.23;3.60;;;16.10;1.00;;;;;;4435526;28;655927;-67
2021/08/26 14:19:33;;;;;;;7.33;4.10;;;15.80;1.00;;;;;;4414198;28;656121;-68
2021/08/26 14:22:21;;;;;;;6.20;4.10;;;15.70;1.00;;;;;;4432168;28;656995;-67